sensor_id;sensor_type;location;lat;lon;timestamp;temperature;humidity
3690;DHT22;1861;50.240;8.596;2022-12-18T00:00:04;-2.00;87.50
3690;DHT22;1861;50.240;8.596;2022-12-18T00:02:40;-2.10;87.40
3690;DHT22;1861;50.240;8.596;2022-12-18T00:05:09;-2.10;87.80
3690;DHT22;1861;50.240;8.596;2022-12-18T00:07:37;-2.00;87.70
3690;DHT22;1861;50.240;8.596;2022-12-18T00:10:06;-2.00;87.70
3690;DHT22;1861;50.240;8.596;2022-12-18T00:12:34;-2.00;87.20
3690;DHT22;1861;50.240;8.596;2022-12-18T00:15:03;-2.00;87.30
3690;DHT22;1861;50.240;8.596;2022-12-18T00:17:31;-2.20;87.30
3690;DHT22;1861;50.240;8.596;2022-12-18T00:20:01;-2.10;87.50
3690;DHT22;1861;50.240;8.596;2022-12-18T00:22:29;-2.10;87.50
3690;DHT22;1861;50.240;8.596;2022-12-18T00:24:57;-2.00;87.70
3690;DHT22;1861;50.240;8.596;2022-12-18T00:27:25;-2.00;87.50
3690;DHT22;1861;50.240;8.596;2022-12-18T00:29:53;-2.00;87.20
3690;DHT22;1861;50.240;8.596;2022-12-18T00:32:21;-2.10;87.20
3690;DHT22;1861;50.240;8.596;2022-12-18T00:34:49;-2.20;87.60
3690;DHT22;1861;50.240;8.596;2022-12-18T00:37:18;-2.20;88.00
3690;DHT22;1861;50.240;8.596;2022-12-18T00:39:50;-2.10;88.10
3690;DHT22;1861;50.240;8.596;2022-12-18T00:42:19;-2.10;87.90
3690;DHT22;1861;50.240;8.596;2022-12-18T00:45:05;-2.00;88.10
3690;DHT22;1861;50.240;8.596;2022-12-18T00:47:39;-2.00;88.00
3690;DHT22;1861;50.240;8.596;2022-12-18T00:50:08;-2.00;88.70
3690;DHT22;1861;50.240;8.596;2022-12-18T00:52:41;-2.00;88.10
3690;DHT22;1861;50.240;8.596;2022-12-18T00:55:10;-2.00;88.10
3690;DHT22;1861;50.240;8.596;2022-12-18T00:57:39;-2.10;88.00
3690;DHT22;1861;50.240;8.596;2022-12-18T01:00:09;-2.10;88.20
3690;DHT22;1861;50.240;8.596;2022-12-18T01:02:37;-2.10;87.80
3690;DHT22;1861;50.240;8.596;2022-12-18T01:05:07;-2.20;88.30
3690;DHT22;1861;50.240;8.596;2022-12-18T01:07:36;-2.30;88.50
3690;DHT22;1861;50.240;8.596;2022-12-18T01:10:07;-2.10;88.60
3690;DHT22;1861;50.240;8.596;2022-12-18T01:12:35;-2.20;88.60
3690;DHT22;1861;50.240;8.596;2022-12-18T01:15:05;-2.20;89.00
3690;DHT22;1861;50.240;8.596;2022-12-18T01:17:34;-2.20;88.70
3690;DHT22;1861;50.240;8.596;2022-12-18T01:20:04;-2.30;88.90
3690;DHT22;1861;50.240;8.596;2022-12-18T01:22:36;-2.20;89.20
3690;DHT22;1861;50.240;8.596;2022-12-18T01:25:08;-2.20;89.20
3690;DHT22;1861;50.240;8.596;2022-12-18T01:27:36;-2.00;89.20
3690;DHT22;1861;50.240;8.596;2022-12-18T01:30:05;-1.90;88.80
3690;DHT22;1861;50.240;8.596;2022-12-18T01:32:34;-2.00;89.00
3690;DHT22;1861;50.240;8.596;2022-12-18T01:35:02;-2.00;89.00
3690;DHT22;1861;50.240;8.596;2022-12-18T01:37:31;-2.20;89.00
3690;DHT22;1861;50.240;8.596;2022-12-18T01:39:59;-2.30;89.30
3690;DHT22;1861;50.240;8.596;2022-12-18T01:42:29;-2.10;89.40
3690;DHT22;1861;50.240;8.596;2022-12-18T01:45:00;-2.20;89.50
3690;DHT22;1861;50.240;8.596;2022-12-18T01:47:39;-2.20;89.80
3690;DHT22;1861;50.240;8.596;2022-12-18T01:50:14;-2.10;89.40
3690;DHT22;1861;50.240;8.596;2022-12-18T01:52:45;-2.10;89.40
3690;DHT22;1861;50.240;8.596;2022-12-18T01:55:17;-2.10;89.20
3690;DHT22;1861;50.240;8.596;2022-12-18T01:57:47;-2.00;89.20
3690;DHT22;1861;50.240;8.596;2022-12-18T02:00:19;-2.00;89.20
3690;DHT22;1861;50.240;8.596;2022-12-18T02:02:48;-2.00;89.50
3690;DHT22;1861;50.240;8.596;2022-12-18T02:05:29;-1.90;89.30
3690;DHT22;1861;50.240;8.596;2022-12-18T02:08:09;-1.90;89.30
3690;DHT22;1861;50.240;8.596;2022-12-18T02:10:46;-1.90;89.30
3690;DHT22;1861;50.240;8.596;2022-12-18T02:13:25;-2.00;89.30
3690;DHT22;1861;50.240;8.596;2022-12-18T02:16:00;-2.20;89.60
3690;DHT22;1861;50.240;8.596;2022-12-18T02:18:33;-2.20;90.00
3690;DHT22;1861;50.240;8.596;2022-12-18T02:21:10;-2.10;90.00
3690;DHT22;1861;50.240;8.596;2022-12-18T02:23:47;-2.10;89.70
3690;DHT22;1861;50.240;8.596;2022-12-18T02:26:26;-2.10;89.90
3690;DHT22;1861;50.240;8.596;2022-12-18T02:28:57;-2.10;90.00
3690;DHT22;1861;50.240;8.596;2022-12-18T02:31:31;-2.10;90.00
3690;DHT22;1861;50.240;8.596;2022-12-18T02:34:03;-2.00;89.90
3690;DHT22;1861;50.240;8.596;2022-12-18T02:36:40;-2.00;89.90
3690;DHT22;1861;50.240;8.596;2022-12-18T02:39:11;-1.90;89.80
3690;DHT22;1861;50.240;8.596;2022-12-18T02:41:50;-2.00;89.60
3690;DHT22;1861;50.240;8.596;2022-12-18T02:44:20;-2.20;90.00
3690;DHT22;1861;50.240;8.596;2022-12-18T02:46:50;-2.10;90.10
3690;DHT22;1861;50.240;8.596;2022-12-18T02:49:31;-2.10;90.00
3690;DHT22;1861;50.240;8.596;2022-12-18T02:52:07;-2.10;90.00
3690;DHT22;1861;50.240;8.596;2022-12-18T02:54:47;-2.20;90.20
3690;DHT22;1861;50.240;8.596;2022-12-18T02:57:24;-2.20;90.20
3690;DHT22;1861;50.240;8.596;2022-12-18T03:00:00;-2.20;90.20
3690;DHT22;1861;50.240;8.596;2022-12-18T03:02:35;-2.20;90.30
3690;DHT22;1861;50.240;8.596;2022-12-18T03:05:11;-2.00;90.50
3690;DHT22;1861;50.240;8.596;2022-12-18T03:07:45;-1.80;90.40
3690;DHT22;1861;50.240;8.596;2022-12-18T03:10:21;-1.60;90.40
3690;DHT22;1861;50.240;8.596;2022-12-18T03:12:55;-1.90;90.40
3690;DHT22;1861;50.240;8.596;2022-12-18T03:15:26;-2.00;90.50
3690;DHT22;1861;50.240;8.596;2022-12-18T03:18:08;-1.90;90.40
3690;DHT22;1861;50.240;8.596;2022-12-18T03:20:40;-2.00;90.40
3690;DHT22;1861;50.240;8.596;2022-12-18T03:23:16;-2.10;90.30
3690;DHT22;1861;50.240;8.596;2022-12-18T03:25:52;-2.10;90.30
3690;DHT22;1861;50.240;8.596;2022-12-18T03:28:23;-2.10;90.20
3690;DHT22;1861;50.240;8.596;2022-12-18T03:31:00;-2.00;90.10
3690;DHT22;1861;50.240;8.596;2022-12-18T03:33:32;-2.10;90.20
3690;DHT22;1861;50.240;8.596;2022-12-18T03:36:03;-2.00;90.30
3690;DHT22;1861;50.240;8.596;2022-12-18T03:38:32;-2.20;90.30
3690;DHT22;1861;50.240;8.596;2022-12-18T03:41:06;-2.00;90.30
3690;DHT22;1861;50.240;8.596;2022-12-18T03:43:50;-2.10;90.30
3690;DHT22;1861;50.240;8.596;2022-12-18T03:46:25;-2.10;90.20
3690;DHT22;1861;50.240;8.596;2022-12-18T03:49:00;-2.10;90.30
3690;DHT22;1861;50.240;8.596;2022-12-18T03:51:36;-2.20;90.20
3690;DHT22;1861;50.240;8.596;2022-12-18T03:54:06;-2.10;90.30
3690;DHT22;1861;50.240;8.596;2022-12-18T03:56:45;-1.90;90.20
3690;DHT22;1861;50.240;8.596;2022-12-18T03:59:16;-2.10;90.20
3690;DHT22;1861;50.240;8.596;2022-12-18T04:01:49;-2.30;90.30
3690;DHT22;1861;50.240;8.596;2022-12-18T04:04:20;-2.00;90.50
3690;DHT22;1861;50.240;8.596;2022-12-18T04:06:50;-1.90;90.30
3690;DHT22;1861;50.240;8.596;2022-12-18T04:09:19;-1.90;90.20
3690;DHT22;1861;50.240;8.596;2022-12-18T04:11:48;-2.00;90.10
3690;DHT22;1861;50.240;8.596;2022-12-18T04:14:17;-2.20;90.30
3690;DHT22;1861;50.240;8.596;2022-12-18T04:16:50;-2.20;90.50
3690;DHT22;1861;50.240;8.596;2022-12-18T04:19:22;-2.20;90.40
3690;DHT22;1861;50.240;8.596;2022-12-18T04:21:52;-2.00;90.50
3690;DHT22;1861;50.240;8.596;2022-12-18T04:24:20;-2.10;90.50
3690;DHT22;1861;50.240;8.596;2022-12-18T04:27:02;-2.00;90.30
3690;DHT22;1861;50.240;8.596;2022-12-18T04:29:39;-1.90;90.30
3690;DHT22;1861;50.240;8.596;2022-12-18T04:32:07;-2.00;90.20
3690;DHT22;1861;50.240;8.596;2022-12-18T04:34:37;-2.00;90.40
3690;DHT22;1861;50.240;8.596;2022-12-18T04:37:05;-2.10;90.50
3690;DHT22;1861;50.240;8.596;2022-12-18T04:39:33;-1.90;90.60
3690;DHT22;1861;50.240;8.596;2022-12-18T04:42:07;-1.80;90.70
3690;DHT22;1861;50.240;8.596;2022-12-18T04:44:36;-2.00;90.50
3690;DHT22;1861;50.240;8.596;2022-12-18T04:47:05;-1.90;90.70
3690;DHT22;1861;50.240;8.596;2022-12-18T04:49:34;-2.10;90.50
3690;DHT22;1861;50.240;8.596;2022-12-18T04:52:02;-2.20;90.70
3690;DHT22;1861;50.240;8.596;2022-12-18T04:54:30;-2.10;90.50
3690;DHT22;1861;50.240;8.596;2022-12-18T04:56:58;-2.00;90.50
3690;DHT22;1861;50.240;8.596;2022-12-18T04:59:26;-2.00;90.30
3690;DHT22;1861;50.240;8.596;2022-12-18T05:01:54;-2.00;90.40
3690;DHT22;1861;50.240;8.596;2022-12-18T05:04:23;-2.10;90.40
3690;DHT22;1861;50.240;8.596;2022-12-18T05:06:51;-2.10;90.50
3690;DHT22;1861;50.240;8.596;2022-12-18T05:09:20;-2.20;90.50
3690;DHT22;1861;50.240;8.596;2022-12-18T05:11:48;-1.90;90.50
3690;DHT22;1861;50.240;8.596;2022-12-18T05:14:16;-2.00;90.30
3690;DHT22;1861;50.240;8.596;2022-12-18T05:16:45;-1.80;90.70
3690;DHT22;1861;50.240;8.596;2022-12-18T05:19:13;-1.60;90.60
3690;DHT22;1861;50.240;8.596;2022-12-18T05:21:42;-1.80;90.50
3690;DHT22;1861;50.240;8.596;2022-12-18T05:24:11;-1.70;90.70
3690;DHT22;1861;50.240;8.596;2022-12-18T05:26:39;-1.90;90.60
3690;DHT22;1861;50.240;8.596;2022-12-18T05:29:07;-1.90;90.50
3690;DHT22;1861;50.240;8.596;2022-12-18T05:31:39;-1.80;90.80
3690;DHT22;1861;50.240;8.596;2022-12-18T05:34:09;-1.70;90.60
3690;DHT22;1861;50.240;8.596;2022-12-18T05:36:38;-1.80;90.70
3690;DHT22;1861;50.240;8.596;2022-12-18T05:39:08;-1.70;90.60
3690;DHT22;1861;50.240;8.596;2022-12-18T05:41:36;-1.80;90.40
3690;DHT22;1861;50.240;8.596;2022-12-18T05:44:04;-1.90;90.40
3690;DHT22;1861;50.240;8.596;2022-12-18T05:46:32;-1.90;90.40
3690;DHT22;1861;50.240;8.596;2022-12-18T05:49:00;-1.80;90.50
3690;DHT22;1861;50.240;8.596;2022-12-18T05:51:28;-1.70;90.30
3690;DHT22;1861;50.240;8.596;2022-12-18T05:53:56;-1.70;90.50
3690;DHT22;1861;50.240;8.596;2022-12-18T05:56:26;-1.60;90.30
3690;DHT22;1861;50.240;8.596;2022-12-18T05:58:54;-1.80;90.20
3690;DHT22;1861;50.240;8.596;2022-12-18T06:01:24;-1.90;90.30
3690;DHT22;1861;50.240;8.596;2022-12-18T06:03:53;-1.90;90.50
3690;DHT22;1861;50.240;8.596;2022-12-18T06:06:23;-2.00;90.40
3690;DHT22;1861;50.240;8.596;2022-12-18T06:08:52;-2.10;90.30
3690;DHT22;1861;50.240;8.596;2022-12-18T06:11:22;-2.00;90.50
3690;DHT22;1861;50.240;8.596;2022-12-18T06:13:53;-1.90;90.60
3690;DHT22;1861;50.240;8.596;2022-12-18T06:16:25;-2.00;90.40
3690;DHT22;1861;50.240;8.596;2022-12-18T06:18:55;-1.90;90.70
3690;DHT22;1861;50.240;8.596;2022-12-18T06:21:23;-1.70;90.70
3690;DHT22;1861;50.240;8.596;2022-12-18T06:23:51;-1.70;90.50
3690;DHT22;1861;50.240;8.596;2022-12-18T06:26:19;-1.70;90.60
3690;DHT22;1861;50.240;8.596;2022-12-18T06:28:55;-1.70;90.70
3690;DHT22;1861;50.240;8.596;2022-12-18T06:31:24;-1.60;90.60
3690;DHT22;1861;50.240;8.596;2022-12-18T06:33:53;-1.60;90.70
3690;DHT22;1861;50.240;8.596;2022-12-18T06:36:21;-1.50;90.70
3690;DHT22;1861;50.240;8.596;2022-12-18T06:38:49;-1.60;90.80
3690;DHT22;1861;50.240;8.596;2022-12-18T06:41:18;-1.70;90.70
3690;DHT22;1861;50.240;8.596;2022-12-18T06:43:47;-2.00;90.70
3690;DHT22;1861;50.240;8.596;2022-12-18T06:46:16;-2.10;90.90
3690;DHT22;1861;50.240;8.596;2022-12-18T06:48:47;-2.10;91.00
3690;DHT22;1861;50.240;8.596;2022-12-18T06:51:17;-1.90;91.10
3690;DHT22;1861;50.240;8.596;2022-12-18T06:53:52;-2.00;90.90
3690;DHT22;1861;50.240;8.596;2022-12-18T06:56:20;-2.10;90.90
3690;DHT22;1861;50.240;8.596;2022-12-18T06:58:51;-2.20;90.90
3690;DHT22;1861;50.240;8.596;2022-12-18T07:01:21;-2.30;90.90
3690;DHT22;1861;50.240;8.596;2022-12-18T07:03:52;-2.30;91.00
3690;DHT22;1861;50.240;8.596;2022-12-18T07:06:23;-2.30;91.00
3690;DHT22;1861;50.240;8.596;2022-12-18T07:08:52;-1.90;91.10
3690;DHT22;1861;50.240;8.596;2022-12-18T07:11:21;-1.90;91.10
3690;DHT22;1861;50.240;8.596;2022-12-18T07:13:50;-1.90;91.10
3690;DHT22;1861;50.240;8.596;2022-12-18T07:16:19;-1.80;91.30
3690;DHT22;1861;50.240;8.596;2022-12-18T07:18:54;-1.70;91.20
3690;DHT22;1861;50.240;8.596;2022-12-18T07:21:24;-1.80;91.10
3690;DHT22;1861;50.240;8.596;2022-12-18T07:23:52;-1.90;91.10
3690;DHT22;1861;50.240;8.596;2022-12-18T07:26:21;-1.90;91.40
3690;DHT22;1861;50.240;8.596;2022-12-18T07:28:50;-1.90;91.30
3690;DHT22;1861;50.240;8.596;2022-12-18T07:31:21;-1.80;91.40
3690;DHT22;1861;50.240;8.596;2022-12-18T07:33:50;-1.70;91.40
3690;DHT22;1861;50.240;8.596;2022-12-18T07:36:27;-1.70;91.30
3690;DHT22;1861;50.240;8.596;2022-12-18T07:38:55;-1.60;91.50
3690;DHT22;1861;50.240;8.596;2022-12-18T07:41:23;-1.70;91.20
3690;DHT22;1861;50.240;8.596;2022-12-18T07:43:51;-1.80;91.40
3690;DHT22;1861;50.240;8.596;2022-12-18T07:46:20;-1.80;91.40
3690;DHT22;1861;50.240;8.596;2022-12-18T07:48:48;-1.70;91.40
3690;DHT22;1861;50.240;8.596;2022-12-18T07:51:16;-1.70;91.30
3690;DHT22;1861;50.240;8.596;2022-12-18T07:53:46;-1.80;91.40
3690;DHT22;1861;50.240;8.596;2022-12-18T07:56:19;-1.80;91.50
3690;DHT22;1861;50.240;8.596;2022-12-18T07:58:58;-1.80;91.60
3690;DHT22;1861;50.240;8.596;2022-12-18T08:01:27;-1.70;91.40
3690;DHT22;1861;50.240;8.596;2022-12-18T08:03:55;-1.80;91.50
3690;DHT22;1861;50.240;8.596;2022-12-18T08:06:23;-1.90;91.60
3690;DHT22;1861;50.240;8.596;2022-12-18T08:08:54;-1.90;91.60
3690;DHT22;1861;50.240;8.596;2022-12-18T08:11:24;-1.80;91.50
3690;DHT22;1861;50.240;8.596;2022-12-18T08:13:52;-1.80;91.70
3690;DHT22;1861;50.240;8.596;2022-12-18T08:16:21;-1.80;91.80
3690;DHT22;1861;50.240;8.596;2022-12-18T08:18:51;-1.70;91.90
3690;DHT22;1861;50.240;8.596;2022-12-18T08:21:22;-1.70;91.90
3690;DHT22;1861;50.240;8.596;2022-12-18T08:23:53;-1.60;92.00
3690;DHT22;1861;50.240;8.596;2022-12-18T08:26:22;-1.40;92.10
3690;DHT22;1861;50.240;8.596;2022-12-18T08:28:51;-1.30;92.10
3690;DHT22;1861;50.240;8.596;2022-12-18T08:31:19;-1.20;92.20
3690;DHT22;1861;50.240;8.596;2022-12-18T08:33:50;-1.20;92.20
3690;DHT22;1861;50.240;8.596;2022-12-18T08:36:20;-1.20;92.40
3690;DHT22;1861;50.240;8.596;2022-12-18T08:38:48;-1.30;92.50
3690;DHT22;1861;50.240;8.596;2022-12-18T08:41:18;-1.40;92.50
3690;DHT22;1861;50.240;8.596;2022-12-18T08:43:46;-1.20;92.80
3690;DHT22;1861;50.240;8.596;2022-12-18T08:46:34;-1.00;93.00
3690;DHT22;1861;50.240;8.596;2022-12-18T08:49:03;-1.00;93.00
3690;DHT22;1861;50.240;8.596;2022-12-18T08:51:31;-1.10;93.10
3690;DHT22;1861;50.240;8.596;2022-12-18T08:53:59;-1.00;93.30
3690;DHT22;1861;50.240;8.596;2022-12-18T08:56:30;-0.90;93.40
3690;DHT22;1861;50.240;8.596;2022-12-18T08:58:58;-0.90;93.40
3690;DHT22;1861;50.240;8.596;2022-12-18T09:01:26;-0.90;93.60
3690;DHT22;1861;50.240;8.596;2022-12-18T09:03:55;-0.80;93.80
3690;DHT22;1861;50.240;8.596;2022-12-18T09:06:23;-0.80;94.10
3690;DHT22;1861;50.240;8.596;2022-12-18T09:08:53;-0.80;94.30
3690;DHT22;1861;50.240;8.596;2022-12-18T09:11:22;-0.70;94.70
3690;DHT22;1861;50.240;8.596;2022-12-18T09:13:52;-0.50;94.70
3690;DHT22;1861;50.240;8.596;2022-12-18T09:16:22;-0.60;94.60
3690;DHT22;1861;50.240;8.596;2022-12-18T09:18:58;-0.50;95.10
3690;DHT22;1861;50.240;8.596;2022-12-18T09:21:28;-0.40;95.10
3690;DHT22;1861;50.240;8.596;2022-12-18T09:23:58;-0.30;95.10
3690;DHT22;1861;50.240;8.596;2022-12-18T09:26:27;-0.10;95.20
3690;DHT22;1861;50.240;8.596;2022-12-18T09:28:56;-0.10;95.20
3690;DHT22;1861;50.240;8.596;2022-12-18T09:31:24;0.00;95.20
3690;DHT22;1861;50.240;8.596;2022-12-18T09:33:54;0.10;95.10
3690;DHT22;1861;50.240;8.596;2022-12-18T09:36:22;0.10;95.20
3690;DHT22;1861;50.240;8.596;2022-12-18T09:38:50;0.10;95.20
3690;DHT22;1861;50.240;8.596;2022-12-18T09:41:39;0.00;95.40
3690;DHT22;1861;50.240;8.596;2022-12-18T09:44:16;0.10;95.60
3690;DHT22;1861;50.240;8.596;2022-12-18T09:46:51;0.00;95.70
3690;DHT22;1861;50.240;8.596;2022-12-18T09:49:24;0.10;95.60
3690;DHT22;1861;50.240;8.596;2022-12-18T09:51:56;0.30;95.50
3690;DHT22;1861;50.240;8.596;2022-12-18T09:54:32;0.40;95.20
3690;DHT22;1861;50.240;8.596;2022-12-18T09:57:01;0.40;95.30
3690;DHT22;1861;50.240;8.596;2022-12-18T09:59:35;0.30;95.40
3690;DHT22;1861;50.240;8.596;2022-12-18T10:02:14;0.20;95.30
3690;DHT22;1861;50.240;8.596;2022-12-18T10:04:43;0.30;95.20
3690;DHT22;1861;50.240;8.596;2022-12-18T10:07:17;0.30;94.90
3690;DHT22;1861;50.240;8.596;2022-12-18T10:09:55;0.40;94.90
3690;DHT22;1861;50.240;8.596;2022-12-18T10:12:30;0.30;94.60
3690;DHT22;1861;50.240;8.596;2022-12-18T10:15:05;0.20;94.80
3690;DHT22;1861;50.240;8.596;2022-12-18T10:17:39;0.30;94.70
3690;DHT22;1861;50.240;8.596;2022-12-18T10:20:15;0.10;94.80
3690;DHT22;1861;50.240;8.596;2022-12-18T10:22:50;0.10;95.00
3690;DHT22;1861;50.240;8.596;2022-12-18T10:25:24;0.10;94.70
3690;DHT22;1861;50.240;8.596;2022-12-18T10:27:55;0.20;94.50
3690;DHT22;1861;50.240;8.596;2022-12-18T10:30:26;0.10;94.50
3690;DHT22;1861;50.240;8.596;2022-12-18T10:32:58;0.00;94.60
3690;DHT22;1861;50.240;8.596;2022-12-18T10:35:28;0.00;94.30
3690;DHT22;1861;50.240;8.596;2022-12-18T10:38:01;0.20;93.80
3690;DHT22;1861;50.240;8.596;2022-12-18T10:40:29;0.30;93.70
3690;DHT22;1861;50.240;8.596;2022-12-18T10:43:05;0.20;93.90
3690;DHT22;1861;50.240;8.596;2022-12-18T10:45:35;0.10;94.10
3690;DHT22;1861;50.240;8.596;2022-12-18T10:48:03;0.00;94.00
3690;DHT22;1861;50.240;8.596;2022-12-18T10:50:33;0.00;93.80
3690;DHT22;1861;50.240;8.596;2022-12-18T10:53:24;0.00;93.50
3690;DHT22;1861;50.240;8.596;2022-12-18T10:55:56;0.30;93.20
3690;DHT22;1861;50.240;8.596;2022-12-18T10:58:26;0.20;93.30
3690;DHT22;1861;50.240;8.596;2022-12-18T11:01:06;0.10;93.40
3690;DHT22;1861;50.240;8.596;2022-12-18T11:03:36;0.10;93.40
3690;DHT22;1861;50.240;8.596;2022-12-18T11:06:07;0.00;93.40
3690;DHT22;1861;50.240;8.596;2022-12-18T11:08:35;0.10;93.40
3690;DHT22;1861;50.240;8.596;2022-12-18T11:11:07;0.30;92.90
3690;DHT22;1861;50.240;8.596;2022-12-18T11:14:01;0.30;93.10
3690;DHT22;1861;50.240;8.596;2022-12-18T11:16:34;0.20;93.20
3690;DHT22;1861;50.240;8.596;2022-12-18T11:19:17;0.20;93.20
3690;DHT22;1861;50.240;8.596;2022-12-18T11:21:48;0.20;93.20
3690;DHT22;1861;50.240;8.596;2022-12-18T11:24:20;0.30;93.20
3690;DHT22;1861;50.240;8.596;2022-12-18T11:26:50;0.30;93.10
3690;DHT22;1861;50.240;8.596;2022-12-18T11:29:31;0.30;93.10
3690;DHT22;1861;50.240;8.596;2022-12-18T11:32:24;0.30;93.20
3690;DHT22;1861;50.240;8.596;2022-12-18T11:34:59;0.30;93.50
3690;DHT22;1861;50.240;8.596;2022-12-18T11:37:29;0.30;93.40
3690;DHT22;1861;50.240;8.596;2022-12-18T11:40:03;0.30;93.60
3690;DHT22;1861;50.240;8.596;2022-12-18T11:42:37;0.40;93.50
3690;DHT22;1861;50.240;8.596;2022-12-18T11:45:23;0.30;93.10
3690;DHT22;1861;50.240;8.596;2022-12-18T11:47:57;0.30;93.10
3690;DHT22;1861;50.240;8.596;2022-12-18T11:50:31;0.30;93.10
3690;DHT22;1861;50.240;8.596;2022-12-18T11:53:01;0.40;93.00
3690;DHT22;1861;50.240;8.596;2022-12-18T11:55:49;0.10;93.00
3690;DHT22;1861;50.240;8.596;2022-12-18T11:58:27;0.10;93.20
3690;DHT22;1861;50.240;8.596;2022-12-18T12:01:06;0.20;93.30
3690;DHT22;1861;50.240;8.596;2022-12-18T12:03:52;0.20;93.40
3690;DHT22;1861;50.240;8.596;2022-12-18T12:06:24;0.20;93.30
3690;DHT22;1861;50.240;8.596;2022-12-18T12:09:02;0.20;93.50
3690;DHT22;1861;50.240;8.596;2022-12-18T12:11:38;0.10;93.40
3690;DHT22;1861;50.240;8.596;2022-12-18T12:14:28;0.10;93.30
3690;DHT22;1861;50.240;8.596;2022-12-18T12:17:05;0.20;93.40
3690;DHT22;1861;50.240;8.596;2022-12-18T12:19:45;0.30;93.50
3690;DHT22;1861;50.240;8.596;2022-12-18T12:22:23;0.30;93.20
3690;DHT22;1861;50.240;8.596;2022-12-18T12:25:07;0.30;93.30
3690;DHT22;1861;50.240;8.596;2022-12-18T12:27:46;0.20;93.30
3690;DHT22;1861;50.240;8.596;2022-12-18T12:30:20;0.30;93.10
3690;DHT22;1861;50.240;8.596;2022-12-18T12:33:04;0.30;93.30
3690;DHT22;1861;50.240;8.596;2022-12-18T12:35:44;0.30;93.30
3690;DHT22;1861;50.240;8.596;2022-12-18T12:38:17;0.20;93.50
3690;DHT22;1861;50.240;8.596;2022-12-18T12:40:51;0.30;93.50
3690;DHT22;1861;50.240;8.596;2022-12-18T12:43:35;0.20;93.70
3690;DHT22;1861;50.240;8.596;2022-12-18T12:46:07;0.10;93.70
3690;DHT22;1861;50.240;8.596;2022-12-18T12:48:41;0.00;93.80
3690;DHT22;1861;50.240;8.596;2022-12-18T12:51:16;0.00;94.00
3690;DHT22;1861;50.240;8.596;2022-12-18T12:53:46;0.10;93.80
3690;DHT22;1861;50.240;8.596;2022-12-18T12:56:16;0.20;93.90
3690;DHT22;1861;50.240;8.596;2022-12-18T12:58:52;0.10;94.00
3690;DHT22;1861;50.240;8.596;2022-12-18T13:01:28;0.10;93.90
3690;DHT22;1861;50.240;8.596;2022-12-18T13:04:06;0.30;93.90
3690;DHT22;1861;50.240;8.596;2022-12-18T13:06:43;0.30;93.90
3690;DHT22;1861;50.240;8.596;2022-12-18T13:09:14;0.30;93.80
3690;DHT22;1861;50.240;8.596;2022-12-18T13:11:44;0.30;94.00
3690;DHT22;1861;50.240;8.596;2022-12-18T13:14:32;0.10;94.00
3690;DHT22;1861;50.240;8.596;2022-12-18T13:17:29;0.20;94.20
3690;DHT22;1861;50.240;8.596;2022-12-18T13:20:11;0.10;94.10
3690;DHT22;1861;50.240;8.596;2022-12-18T13:22:46;0.10;94.30
3690;DHT22;1861;50.240;8.596;2022-12-18T13:25:32;0.20;94.20
3690;DHT22;1861;50.240;8.596;2022-12-18T13:28:04;0.20;94.10
3690;DHT22;1861;50.240;8.596;2022-12-18T13:30:53;0.30;94.20
3690;DHT22;1861;50.240;8.596;2022-12-18T13:33:47;0.30;94.20
3690;DHT22;1861;50.240;8.596;2022-12-18T13:36:35;0.30;94.20
3690;DHT22;1861;50.240;8.596;2022-12-18T13:39:32;0.30;94.20
3690;DHT22;1861;50.240;8.596;2022-12-18T13:42:39;0.40;94.10
3690;DHT22;1861;50.240;8.596;2022-12-18T13:45:38;0.30;94.20
3690;DHT22;1861;50.240;8.596;2022-12-18T13:48:19;0.10;94.40
3690;DHT22;1861;50.240;8.596;2022-12-18T13:50:55;0.20;94.60
3690;DHT22;1861;50.240;8.596;2022-12-18T13:53:27;0.30;94.60
3690;DHT22;1861;50.240;8.596;2022-12-18T13:55:59;0.30;94.60
3690;DHT22;1861;50.240;8.596;2022-12-18T13:58:27;0.50;94.60
3690;DHT22;1861;50.240;8.596;2022-12-18T14:00:55;0.30;94.60
3690;DHT22;1861;50.240;8.596;2022-12-18T14:03:27;0.40;94.60
3690;DHT22;1861;50.240;8.596;2022-12-18T14:06:03;0.20;94.60
3690;DHT22;1861;50.240;8.596;2022-12-18T14:08:38;0.20;94.70
3690;DHT22;1861;50.240;8.596;2022-12-18T14:11:19;0.20;94.80
3690;DHT22;1861;50.240;8.596;2022-12-18T14:13:48;0.10;94.70
3690;DHT22;1861;50.240;8.596;2022-12-18T14:16:17;0.10;94.80
3690;DHT22;1861;50.240;8.596;2022-12-18T14:18:48;0.20;95.00
3690;DHT22;1861;50.240;8.596;2022-12-18T14:21:20;0.30;95.00
3690;DHT22;1861;50.240;8.596;2022-12-18T14:23:48;0.30;95.00
3690;DHT22;1861;50.240;8.596;2022-12-18T14:26:23;0.40;95.00
3690;DHT22;1861;50.240;8.596;2022-12-18T14:28:54;0.40;94.80
3690;DHT22;1861;50.240;8.596;2022-12-18T14:31:23;0.30;94.90
3690;DHT22;1861;50.240;8.596;2022-12-18T14:33:53;0.20;95.00
3690;DHT22;1861;50.240;8.596;2022-12-18T14:36:23;0.30;95.20
3690;DHT22;1861;50.240;8.596;2022-12-18T14:38:52;0.20;95.10
3690;DHT22;1861;50.240;8.596;2022-12-18T14:41:23;0.30;95.20
3690;DHT22;1861;50.240;8.596;2022-12-18T14:43:53;0.30;95.20
3690;DHT22;1861;50.240;8.596;2022-12-18T14:46:28;0.30;95.10
3690;DHT22;1861;50.240;8.596;2022-12-18T14:48:58;0.40;95.20
3690;DHT22;1861;50.240;8.596;2022-12-18T14:51:27;0.30;95.20
3690;DHT22;1861;50.240;8.596;2022-12-18T14:53:58;0.40;95.40
3690;DHT22;1861;50.240;8.596;2022-12-18T14:56:30;0.30;95.30
3690;DHT22;1861;50.240;8.596;2022-12-18T14:59:00;0.30;95.40
3690;DHT22;1861;50.240;8.596;2022-12-18T15:01:30;0.30;95.40
3690;DHT22;1861;50.240;8.596;2022-12-18T15:04:01;0.30;95.40
3690;DHT22;1861;50.240;8.596;2022-12-18T15:06:32;0.30;95.40
3690;DHT22;1861;50.240;8.596;2022-12-18T15:09:03;0.40;95.50
3690;DHT22;1861;50.240;8.596;2022-12-18T15:11:46;0.50;95.40
3690;DHT22;1861;50.240;8.596;2022-12-18T15:14:30;0.40;95.40
3690;DHT22;1861;50.240;8.596;2022-12-18T15:16:59;0.30;95.30
3690;DHT22;1861;50.240;8.596;2022-12-18T15:19:34;0.30;95.40
3690;DHT22;1861;50.240;8.596;2022-12-18T15:22:03;0.20;95.50
3690;DHT22;1861;50.240;8.596;2022-12-18T15:24:32;0.30;95.60
3690;DHT22;1861;50.240;8.596;2022-12-18T15:27:02;0.30;95.50
3690;DHT22;1861;50.240;8.596;2022-12-18T15:29:30;0.30;95.50
3690;DHT22;1861;50.240;8.596;2022-12-18T15:32:00;0.30;95.50
3690;DHT22;1861;50.240;8.596;2022-12-18T15:34:29;0.40;95.60
3690;DHT22;1861;50.240;8.596;2022-12-18T15:36:57;0.30;95.70
3690;DHT22;1861;50.240;8.596;2022-12-18T15:39:25;0.30;95.80
3690;DHT22;1861;50.240;8.596;2022-12-18T15:41:53;0.30;95.90
3690;DHT22;1861;50.240;8.596;2022-12-18T15:44:40;0.30;96.00
3690;DHT22;1861;50.240;8.596;2022-12-18T15:47:11;0.30;96.00
3690;DHT22;1861;50.240;8.596;2022-12-18T15:49:39;0.30;96.00
3690;DHT22;1861;50.240;8.596;2022-12-18T15:52:08;0.20;96.10
3690;DHT22;1861;50.240;8.596;2022-12-18T15:54:39;0.20;96.20
3690;DHT22;1861;50.240;8.596;2022-12-18T15:57:25;0.30;96.10
3690;DHT22;1861;50.240;8.596;2022-12-18T15:59:55;0.30;96.00
3690;DHT22;1861;50.240;8.596;2022-12-18T16:02:25;0.30;96.20
3690;DHT22;1861;50.240;8.596;2022-12-18T16:04:54;0.30;96.00
3690;DHT22;1861;50.240;8.596;2022-12-18T16:07:22;0.30;96.10
3690;DHT22;1861;50.240;8.596;2022-12-18T16:09:56;0.30;96.00
3690;DHT22;1861;50.240;8.596;2022-12-18T16:12:26;0.30;96.10
3690;DHT22;1861;50.240;8.596;2022-12-18T16:14:55;0.30;96.10
3690;DHT22;1861;50.240;8.596;2022-12-18T16:17:23;0.40;96.20
3690;DHT22;1861;50.240;8.596;2022-12-18T16:19:51;0.40;96.20
3690;DHT22;1861;50.240;8.596;2022-12-18T16:22:21;0.40;96.20
3690;DHT22;1861;50.240;8.596;2022-12-18T16:24:51;0.40;96.20
3690;DHT22;1861;50.240;8.596;2022-12-18T16:27:20;0.30;96.30
3690;DHT22;1861;50.240;8.596;2022-12-18T16:29:48;0.30;96.30
3690;DHT22;1861;50.240;8.596;2022-12-18T16:32:19;0.30;96.30
3690;DHT22;1861;50.240;8.596;2022-12-18T16:34:47;0.30;96.30
3690;DHT22;1861;50.240;8.596;2022-12-18T16:37:15;0.30;96.30
3690;DHT22;1861;50.240;8.596;2022-12-18T16:39:44;0.40;96.30
3690;DHT22;1861;50.240;8.596;2022-12-18T16:42:14;0.40;96.30